Time;durP1;ratioP1;P1;durP2;ratioP2;P2;SDS_P1;SDS_P2;PMS_P1;PMS_P2;Temp;Humidity;BMP_temperature;BMP_pressure;BME280_temperature;BME280_humidity;BME280_pressure;Samples;Min_cycle;Max_cycle;Signal;HPM_P1;HPM_P2
2022/04/22 00:00:31;;;;;;;11.25;6.72;;;;;;;12.38;56.24;100807.59;4991771;28;20109;-92
2022/04/22 00:02:56;;;;;;;7.97;6.78;;;;;;;12.37;55.90;100812.03;4991059;28;20035;-94
2022/04/22 00:05:22;;;;;;;8.75;6.78;;;;;;;12.36;55.35;100804.19;4972151;28;20474;-93
2022/04/22 00:07:47;;;;;;;8.13;6.50;;;;;;;12.37;56.04;100801.44;4987892;28;20109;-92
2022/04/22 00:10:12;;;;;;;10.30;7.25;;;;;;;12.36;57.21;100802.38;4987793;28;20481;-92
2022/04/22 00:12:38;;;;;;;8.23;6.50;;;;;;;12.35;56.06;100807.72;4996750;28;20033;-94
2022/04/22 00:15:05;;;;;;;10.32;6.55;;;;;;;12.28;57.79;100807.19;4974979;28;20394;-93
2022/04/22 00:17:30;;;;;;;9.10;6.93;;;;;;;12.17;56.86;100807.69;4990768;28;20284;-93
2022/04/22 00:19:55;;;;;;;7.88;6.57;;;;;;;12.15;56.86;100806.03;4975609;28;20064;-93
2022/04/22 00:22:21;;;;;;;8.63;6.82;;;;;;;12.10;56.88;100795.66;4972559;28;20485;-92
2022/04/22 00:24:46;;;;;;;11.07;6.90;;;;;;;12.07;57.30;100792.28;4986270;28;20121;-93
2022/04/22 00:27:11;;;;;;;14.27;7.38;;;;;;;12.02;57.41;100795.16;4974250;28;20143;-90
2022/04/22 00:29:36;;;;;;;11.52;7.00;;;;;;;12.03;57.44;100786.28;4974321;28;20038;-93
2022/04/22 00:32:02;;;;;;;10.43;7.45;;;;;;;12.05;57.36;100792.38;4972695;28;20024;-91
2022/04/22 00:34:27;;;;;;;8.98;6.88;;;;;;;12.05;57.31;100788.88;4970422;28;20030;-91
2022/04/22 00:36:54;;;;;;;9.30;6.78;;;;;;;11.98;58.39;100796.22;4992875;28;20561;-95
2022/04/22 00:39:19;;;;;;;10.20;6.70;;;;;;;11.89;59.24;100778.09;4994789;28;20109;-90
2022/04/22 00:41:44;;;;;;;12.80;7.00;;;;;;;11.84;57.96;100793.34;4972909;28;20441;-93
2022/04/22 00:44:11;;;;;;;10.23;7.45;;;;;;;11.81;58.12;100789.03;5002509;28;20025;-90
2022/04/22 00:46:36;;;;;;;11.80;6.97;;;;;;;11.78;58.74;100790.97;4996428;28;20121;-93
2022/04/22 00:49:02;;;;;;;10.88;7.05;;;;;;;11.77;58.44;100787.47;4982023;28;20509;-90
2022/04/22 00:51:27;;;;;;;8.90;6.70;;;;;;;11.73;58.74;100784.09;4977590;28;20806;-93
2022/04/22 00:53:54;;;;;;;9.05;6.80;;;;;;;11.74;58.84;100787.59;4995492;28;20037;-93
2022/04/22 00:56:20;;;;;;;9.32;7.10;;;;;;;11.73;58.81;100785.88;4975801;28;20021;-90
2022/04/22 00:58:47;;;;;;;9.50;7.25;;;;;;;11.60;59.23;100774.97;4995527;28;20022;-93
2022/04/22 01:01:12;;;;;;;10.40;7.75;;;;;;;11.60;59.27;100772.31;4972530;28;20104;-93
2022/04/22 01:03:39;;;;;;;9.30;7.32;;;;;;;11.69;58.96;100777.22;4997446;28;20038;-94
2022/04/22 01:11:36;;;;;;;9.95;7.18;;;;;;;11.58;59.73;100776.00;4991964;28;20049;-92
2022/04/22 01:14:04;;;;;;;14.30;7.85;;;;;;;11.60;59.58;100777.63;4991326;28;20034;-93
2022/04/22 01:16:29;;;;;;;12.55;7.90;;;;;;;11.57;59.91;100774.28;4995460;28;20049;-92
2022/04/22 01:18:55;;;;;;;10.57;7.32;;;;;;;11.49;60.00;100767.53;4974449;28;20484;-93
2022/04/22 01:21:20;;;;;;;13.02;8.02;;;;;;;11.47;60.20;100757.91;4979231;28;20503;-92
2022/04/22 01:23:46;;;;;;;11.63;8.45;;;;;;;11.45;60.68;100763.28;4978516;28;20073;-90
2022/04/22 01:26:14;;;;;;;10.27;7.45;;;;;;;11.40;60.50;100760.00;4997412;28;20100;-92
2022/04/22 01:28:41;;;;;;;10.45;7.28;;;;;;;11.45;60.79;100760.66;4976458;28;20489;-92
2022/04/22 01:31:06;;;;;;;11.18;8.23;;;;;;;11.44;61.03;100755.44;4990389;28;20065;-93
2022/04/22 01:33:32;;;;;;;13.85;7.53;;;;;;;11.40;61.81;100756.50;4981094;28;20019;-92
2022/04/22 01:35:58;;;;;;;10.40;7.50;;;;;;;11.34;60.89;100751.50;4995863;28;20045;-92
2022/04/22 01:38:24;;;;;;;12.00;8.40;;;;;;;11.32;61.43;100745.38;4974456;28;20018;-93
2022/04/22 01:40:49;;;;;;;12.07;7.88;;;;;;;11.29;61.09;100748.19;4976791;28;20026;-91
2022/04/22 01:43:14;;;;;;;14.82;8.73;;;;;;;11.27;61.49;100744.72;4969979;28;20625;-92
2022/04/22 01:45:40;;;;;;;13.35;8.63;;;;;;;11.23;61.99;100742.22;4971409;28;20040;-92
2022/04/22 01:48:05;;;;;;;12.88;8.45;;;;;;;11.17;61.82;100737.19;4993826;28;20168;-93
2022/04/22 01:50:31;;;;;;;13.43;9.27;;;;;;;11.13;62.32;100743.56;4974520;28;20113;-90
2022/04/22 01:52:56;;;;;;;11.88;8.90;;;;;;;11.10;62.39;100737.56;4975513;28;20045;-90
2022/04/22 01:55:22;;;;;;;13.50;8.45;;;;;;;11.09;62.21;100744.59;4975565;28;20032;-91
2022/04/22 01:57:48;;;;;;;11.90;8.00;;;;;;;11.00;63.04;100734.44;4990421;28;20030;-95
2022/04/22 02:00:13;;;;;;;12.35;8.27;;;;;;;11.05;62.55;100747.47;4976860;28;20133;-93
2022/04/22 02:02:39;;;;;;;14.10;9.38;;;;;;;11.04;62.84;100745.75;4992646;28;20034;-91
2022/04/22 02:05:05;;;;;;;11.75;8.80;;;;;;;10.96;62.93;100741.66;4973623;28;20387;-93
2022/04/22 02:07:31;;;;;;;13.32;9.30;;;;;;;11.01;62.77;100746.75;4987416;28;20058;-90
2022/04/22 02:09:57;;;;;;;12.77;8.90;;;;;;;10.93;63.06;100739.13;4994486;28;20029;-92
2022/04/22 02:12:22;;;;;;;12.38;9.25;;;;;;;10.97;63.22;100756.59;4973822;28;20045;-92
2022/04/22 02:14:48;;;;;;;13.00;8.70;;;;;;;10.95;63.14;100745.22;4972871;28;20084;-93
2022/04/22 02:17:13;;;;;;;14.15;9.63;;;;;;;10.96;63.47;100751.38;4986895;28;20253;-93
2022/04/22 02:19:40;;;;;;;11.68;9.30;;;;;;;10.91;63.32;100748.94;4970142;28;20505;-92
2022/04/22 02:22:06;;;;;;;11.93;8.63;;;;;;;10.94;63.20;100754.06;4996866;28;20040;-92
2022/04/22 02:24:31;;;;;;;11.63;9.05;;;;;;;10.90;63.38;100754.28;4992670;28;20536;-91
2022/04/22 02:29:40;;;;;;;13.95;9.52;;;;;;;10.78;64.17;100745.09;4992811;28;20116;-94
2022/04/22 02:32:06;;;;;;;12.10;8.90;;;;;;;10.73;64.52;100747.06;4972941;28;20109;-92
2022/04/22 02:34:32;;;;;;;12.50;9.10;;;;;;;10.72;65.46;100743.56;4974551;28;20439;-93
2022/04/22 02:36:57;;;;;;;13.02;8.98;;;;;;;10.73;63.96;100740.00;4975775;28;20069;-92
2022/04/22 02:39:22;;;;;;;15.45;9.80;;;;;;;10.70;64.26;100737.47;4973790;28;20481;-92
2022/04/22 02:47:16;;;;;;;15.57;9.10;;;;;;;10.60;64.34;100728.22;4991960;28;20045;-89
2022/04/22 02:49:44;;;;;;;13.27;9.80;;;;;;;10.57;64.60;100724.84;4973949;28;20479;-90
2022/04/22 02:52:14;;;;;;;15.55;9.43;;;;;;;10.57;64.52;100736.28;4975761;28;20506;-91
2022/04/22 02:54:40;;;;;;;14.50;9.95;;;;;;;10.56;64.93;100736.34;4973229;28;20030;-89
2022/04/22 02:57:06;;;;;;;16.83;10.10;;;;;;;10.46;65.17;100722.66;4980443;28;20041;-93
2022/04/22 02:59:32;;;;;;;13.73;9.68;;;;;;;10.47;65.16;100724.38;4989157;28;20033;-93
2022/04/22 03:01:58;;;;;;;15.00;9.90;;;;;;;10.46;64.90;100718.22;4990069;28;20485;-91
2022/04/22 03:04:25;;;;;;;14.73;9.52;;;;;;;10.46;65.06;100723.50;4980351;28;20026;-92
2022/04/22 03:06:50;;;;;;;15.10;9.90;;;;;;;10.38;65.67;100719.47;4986531;28;20034;-90
2022/04/22 03:09:16;;;;;;;14.10;9.52;;;;;;;10.37;65.25;100718.59;4975000;28;20533;-89
2022/04/22 03:11:42;;;;;;;13.65;9.75;;;;;;;10.35;65.23;100704.59;4980683;28;20026;-91
2022/04/22 03:14:07;;;;;;;20.08;10.82;;;;;;;10.35;64.91;100709.88;4981450;28;20030;-92
2022/04/22 03:16:33;;;;;;;16.15;10.25;;;;;;;10.34;68.17;100717.84;4986621;28;20053;-93
2022/04/22 03:18:59;;;;;;;15.68;9.88;;;;;;;10.35;65.61;100719.56;4982869;28;20065;-92
2022/04/22 03:21:25;;;;;;;20.58;10.30;;;;;;;10.34;66.25;100718.72;4982415;28;20026;-92
2022/04/22 03:23:51;;;;;;;13.45;8.93;;;;;;;10.28;66.00;100712.84;4980871;28;20496;-88
2022/04/22 03:26:16;;;;;;;16.27;10.45;;;;;;;10.22;66.18;100712.13;4993469;28;20037;-91
2022/04/22 03:28:41;;;;;;;13.60;9.50;;;;;;;10.11;66.50;100706.41;4978787;28;20038;-92
2022/04/22 03:31:07;;;;;;;14.98;9.75;;;;;;;10.14;66.73;100710.72;4990639;28;20409;-92
2022/04/22 03:33:33;;;;;;;16.27;10.50;;;;;;;10.12;66.72;100713.44;4981445;28;20041;-90
2022/04/22 03:35:58;;;;;;;16.33;11.40;;;;;;;10.10;66.82;100717.03;4981901;28;20117;-93
2022/04/22 03:38:23;;;;;;;21.33;11.55;;;;;;;10.10;67.05;100712.63;4989060;28;20031;-90
2022/04/22 03:40:50;;;;;;;18.65;10.95;;;;;;;10.09;67.21;100708.25;4977111;28;20041;-92
2022/04/22 03:43:16;;;;;;;18.92;11.38;;;;;;;10.07;67.38;100712.75;4967789;28;20019;-91
2022/04/22 03:45:42;;;;;;;15.20;9.65;;;;;;;10.04;68.02;100701.44;4975786;28;20034;-92
2022/04/22 03:48:09;;;;;;;18.17;12.07;;;;;;;9.96;67.67;100699.09;4982276;28;20058;-92
2022/04/22 03:50:36;;;;;;;16.45;10.90;;;;;;;10.00;67.66;100697.22;4990183;28;20084;-91
2022/04/22 03:53:02;;;;;;;17.42;10.63;;;;;;;9.93;67.86;100707.13;4989856;28;20042;-90
2022/04/22 03:55:28;;;;;;;15.90;10.68;;;;;;;9.95;67.35;100702.69;4970115;28;20044;-91
2022/04/22 03:58:12;;;;;;;15.95;10.35;;;;;;;9.94;66.91;100698.31;4969642;28;20105;-95
2022/04/22 04:00:41;;;;;;;15.68;10.63;;;;;;;9.99;66.59;100701.63;4988830;28;20061;-90
2022/04/22 04:03:11;;;;;;;16.85;10.48;;;;;;;9.93;66.78;100689.53;4967728;28;20248;-91
2022/04/22 04:05:38;;;;;;;16.70;11.00;;;;;;;9.92;66.89;100679.88;4973825;28;20026;-93
2022/04/22 04:08:04;;;;;;;19.10;10.60;;;;;;;9.88;67.72;100680.91;4970647;28;20034;-92
2022/04/22 04:15:58;;;;;;;20.25;11.80;;;;;;;9.88;67.57;100695.91;4995386;28;20563;-91
2022/04/22 04:18:24;;;;;;;17.35;11.70;;;;;;;9.86;68.13;100703.03;4993193;28;20026;-91
2022/04/22 04:23:33;;;;;;;15.52;10.48;;;;;;;9.79;68.52;100697.16;4994219;28;20527;-92
2022/04/22 04:25:59;;;;;;;16.90;11.60;;;;;;;9.79;67.78;100696.25;4975753;28;20026;-92
2022/04/22 04:28:27;;;;;;;23.05;12.02;;;;;;;9.79;68.17;100691.88;4974030;28;20105;-92
2022/04/22 04:30:54;;;;;;;15.70;11.63;;;;;;;9.79;68.62;100693.63;4976851;28;20072;-92
2022/04/22 04:33:20;;;;;;;19.70;12.65;;;;;;;9.82;68.22;100693.50;4974467;28;20018;-92
2022/04/22 04:35:47;;;;;;;18.45;11.63;;;;;;;9.83;68.22;100682.03;4974023;28;20033;-91
2022/04/22 04:38:15;;;;;;;18.90;11.93;;;;;;;9.84;68.07;100683.75;4981193;28;20041;-89
2022/04/22 04:40:40;;;;;;;20.40;11.55;;;;;;;9.82;68.42;100677.66;4969211;28;20033;-92
2022/04/22 04:43:06;;;;;;;18.55;11.55;;;;;;;9.87;68.33;100686.28;4973981;28;20038;-91
2022/04/22 04:45:32;;;;;;;21.75;12.52;;;;;;;9.87;68.86;100694.19;4993921;28;20034;-92
2022/04/22 04:47:57;;;;;;;17.92;12.02;;;;;;;9.90;68.87;100688.81;4978275;28;20033;-91
2022/04/22 04:50:23;;;;;;;20.35;12.18;;;;;;;9.95;68.80;100685.03;4973912;28;20038;-91
2022/04/22 04:52:48;;;;;;;17.38;11.35;;;;;;;9.97;68.19;100682.34;4953077;28;20042;-90
2022/04/22 04:55:14;;;;;;;18.50;11.45;;;;;;;10.03;68.33;100686.53;4966814;28;20035;-91
2022/04/22 04:57:41;;;;;;;20.63;12.73;;;;;;;10.05;68.53;100692.59;4963067;28;20066;-92
2022/04/22 05:00:08;;;;;;;18.88;11.73;;;;;;;10.02;68.38;100695.34;4949601;28;20117;-93
2022/04/22 05:02:33;;;;;;;18.55;13.18;;;;;;;9.95;68.85;100677.13;4948129;28;20031;-92
2022/04/22 05:04:59;;;;;;;18.02;11.15;;;;;;;9.96;68.63;100680.63;4969071;28;20034;-93
2022/04/22 05:07:24;;;;;;;19.02;12.80;;;;;;;9.87;68.97;100681.00;4947979;28;20118;-91
2022/04/22 05:09:49;;;;;;;20.90;11.90;;;;;;;9.93;69.76;100680.72;4963179;28;20486;-91
2022/04/22 05:12:15;;;;;;;17.55;11.80;;;;;;;9.92;69.11;100679.03;4968056;28;20293;-90
2022/04/22 05:14:40;;;;;;;18.27;11.88;;;;;;;9.93;69.25;100686.91;4964903;28;20047;-91
2022/04/22 05:17:05;;;;;;;17.50;11.75;;;;;;;9.97;69.40;100688.47;4965580;28;20058;-91
2022/04/22 05:19:31;;;;;;;21.23;12.38;;;;;;;9.94;69.90;100677.19;4966437;28;20109;-93
2022/04/22 05:21:56;;;;;;;20.05;11.63;;;;;;;10.03;69.68;100687.38;4965229;28;20037;-91
2022/04/22 05:24:22;;;;;;;21.02;13.63;;;;;;;10.04;69.57;100678.53;4949156;28;20027;-88
2022/04/22 05:26:48;;;;;;;22.10;12.07;;;;;;;10.17;69.60;100689.47;4949134;28;20042;-91
2022/04/22 05:34:41;;;;;;;18.00;12.65;;;;;;;10.33;69.54;100695.00;4967769;28;20626;-91
2022/04/22 05:37:07;;;;;;;21.45;13.70;;;;;;;10.33;69.67;100690.56;4948069;28;20022;-90
2022/04/22 05:39:33;;;;;;;21.98;13.60;;;;;;;10.37;70.01;100694.81;4948426;28;20081;-91
2022/04/22 05:42:01;;;;;;;20.38;13.23;;;;;;;10.40;69.81;100691.19;4966525;28;20042;-93
2022/04/22 05:44:29;;;;;;;24.35;14.63;;;;;;;10.44;70.29;100698.94;4964943;28;20122;-92
2022/04/22 05:46:55;;;;;;;22.88;16.05;;;;;;;10.45;70.64;100697.16;4950148;28;20034;-91
2022/04/22 05:49:20;;;;;;;21.55;15.18;;;;;;;10.52;69.81;100697.75;4948843;28;20442;-90
2022/04/22 05:51:45;;;;;;;26.95;14.27;;;;;;;10.58;69.25;100706.25;4965730;28;20062;-89
2022/04/22 05:54:11;;;;;;;23.52;15.52;;;;;;;10.63;70.32;100696.38;4951302;28;20121;-91
2022/04/22 05:56:36;;;;;;;23.88;15.45;;;;;;;10.64;70.05;100690.16;4966629;28;20466;-93
2022/04/22 05:59:02;;;;;;;26.30;15.13;;;;;;;10.71;69.79;100698.66;4966572;28;20019;-92
2022/04/22 06:01:28;;;;;;;25.85;15.75;;;;;;;10.75;70.28;100697.63;4947449;28;20023;-90
2022/04/22 06:03:53;;;;;;;23.67;15.30;;;;;;;10.80;69.71;100700.91;4951800;28;20079;-90
2022/04/22 06:06:18;;;;;;;24.25;16.48;;;;;;;10.85;69.78;100698.94;4968016;28;20021;-92
2022/04/22 06:11:27;;;;;;;26.52;16.42;;;;;;;11.01;69.61;100698.28;4964026;28;20114;-93
2022/04/22 06:13:52;;;;;;;29.88;17.05;;;;;;;11.04;69.69;100692.84;4950471;28;20430;-89
2022/04/22 06:16:18;;;;;;;25.73;17.17;;;;;;;11.11;69.31;100694.28;4965850;28;20114;-93
2022/04/22 06:18:43;;;;;;;25.63;17.55;;;;;;;11.18;69.38;100687.78;4965839;28;20019;-91
2022/04/22 06:21:08;;;;;;;25.05;15.95;;;;;;;11.31;69.00;100696.03;4950431;28;20032;-91
2022/04/22 06:23:34;;;;;;;24.15;16.20;;;;;;;11.39;68.92;100692.13;4949702;28;20774;-92
2022/04/22 06:25:59;;;;;;;27.17;15.57;;;;;;;11.45;67.93;100698.91;4952552;28;20037;-92
2022/04/22 06:28:25;;;;;;;24.13;15.85;;;;;;;11.47;68.20;100686.44;4967858;28;20078;-89
2022/04/22 06:30:50;;;;;;;25.88;16.38;;;;;;;11.61;68.23;100696.41;4966847;28;20433;-89
2022/04/22 06:33:18;;;;;;;24.30;16.23;;;;;;;11.69;68.47;100695.09;4949704;28;20073;-89
2022/04/22 06:35:44;;;;;;;25.45;16.10;;;;;;;11.81;67.18;100695.47;4949667;28;20034;-92
2022/04/22 06:38:14;;;;;;;23.50;15.95;;;;;;;11.85;67.86;100691.78;4950447;28;20030;-92
2022/04/22 06:46:07;;;;;;;24.92;16.27;;;;;;;12.23;66.21;100688.13;4960725;28;21065;-92
2022/04/22 06:48:34;;;;;;;24.73;15.93;;;;;;;12.33;65.91;100690.31;4964628;28;20438;-93
2022/04/22 06:51:01;;;;;;;29.45;17.63;;;;;;;12.51;66.11;100686.75;4948563;28;20026;-91
2022/04/22 06:53:26;;;;;;;26.00;16.40;;;;;;;12.67;65.44;100692.97;4971389;28;20061;-93
2022/04/22 06:55:53;;;;;;;24.60;16.40;;;;;;;12.68;65.35;100677.91;4984998;28;20053;-90
2022/04/22 06:58:20;;;;;;;22.92;15.60;;;;;;;12.69;64.78;100677.84;4972674;28;20033;-89
2022/04/22 07:00:46;;;;;;;23.95;16.10;;;;;;;12.73;64.54;100687.38;4985800;28;20465;-92
2022/04/22 07:03:13;;;;;;;25.30;16.55;;;;;;;12.84;64.69;100693.91;4988220;28;20059;-92
2022/04/22 07:05:41;;;;;;;22.63;16.73;;;;;;;12.90;64.48;100694.44;4974344;28;20034;-92
2022/04/22 07:08:08;;;;;;;25.40;15.93;;;;;;;12.88;64.09;100693.69;4970019;28;20029;-93
2022/04/22 07:10:34;;;;;;;74.70;19.77;;;;;;;12.82;64.35;100687.81;4968992;28;20102;-93
2022/04/22 07:13:00;;;;;;;26.70;16.10;;;;;;;12.86;64.64;100694.69;4971305;28;20363;-94
2022/04/22 07:15:26;;;;;;;22.52;16.30;;;;;;;12.94;63.72;100685.38;4972295;28;20046;-91
2022/04/22 07:17:51;;;;;;;25.98;16.98;;;;;;;13.21;63.60;100688.38;4989403;28;20049;-91
2022/04/22 07:20:17;;;;;;;23.65;16.60;;;;;;;13.37;63.15;100677.81;4986086;28;20302;-94
2022/04/22 07:22:43;;;;;;;23.25;16.33;;;;;;;13.50;62.54;100665.56;4988797;28;20084;-92
2022/04/22 07:25:10;;;;;;;23.15;16.10;;;;;;;13.67;62.40;100677.09;4974224;28;20368;-93
2022/04/22 07:27:41;;;;;;;26.77;16.13;;;;;;;13.96;61.84;100670.97;4984767;28;20034;-93
2022/04/22 07:30:08;;;;;;;24.98;15.27;;;;;;;14.21;60.42;100672.22;4978578;28;20031;-92
2022/04/22 07:32:38;;;;;;;22.83;15.10;;;;;;;14.49;59.96;100675.00;4972813;28;20029;-93
2022/04/22 07:35:05;;;;;;;20.98;15.23;;;;;;;14.82;60.08;100671.28;4988860;28;20105;-93
2022/04/22 07:37:30;;;;;;;21.92;16.67;;;;;;;14.93;58.26;100668.00;4976483;28;20899;-91
2022/04/22 07:39:56;;;;;;;20.77;14.20;;;;;;;15.14;57.14;100664.00;4965376;28;20038;-93
2022/04/22 07:42:22;;;;;;;17.85;13.85;;;;;;;15.31;56.68;100668.28;4986234;28;20030;-92
2022/04/22 07:47:35;;;;;;;18.63;13.57;;;;;;;15.06;56.42;100658.28;4986457;28;20568;-92
2022/04/22 07:50:05;;;;;;;20.23;13.32;;;;;;;15.22;57.20;100656.38;4962973;28;20387;-89
2022/04/22 07:52:30;;;;;;;21.17;14.40;;;;;;;15.99;56.08;100665.72;4987398;28;20133;-91
2022/04/22 07:54:56;;;;;;;22.05;14.23;;;;;;;16.57;52.87;100653.78;4991009;28;20149;-91
2022/04/22 07:57:21;;;;;;;17.67;13.43;;;;;;;16.51;51.52;100658.72;4992975;28;20042;-94
2022/04/22 07:59:47;;;;;;;17.13;12.77;;;;;;;16.31;53.46;100660.88;4969526;28;20271;-93
2022/04/22 08:02:12;;;;;;;51.75;14.32;;;;;;;16.04;53.16;100666.25;4971191;28;20519;-92
2022/04/22 08:04:38;;;;;;;20.23;13.48;;;;;;;15.79;54.32;100669.66;4972350;28;20029;-92
2022/04/22 08:07:05;;;;;;;19.83;14.30;;;;;;;15.51;54.84;100659.88;4984255;28;20034;-91
2022/04/22 08:09:31;;;;;;;18.90;13.27;;;;;;;15.48;55.41;100669.84;4969775;28;20452;-92
2022/04/22 08:11:56;;;;;;;19.88;14.95;;;;;;;15.34;55.21;100662.78;4975406;28;20034;-93
2022/04/22 08:14:22;;;;;;;18.95;13.88;;;;;;;15.15;55.70;100657.69;4989102;28;20088;-90
2022/04/22 08:16:47;;;;;;;21.23;14.05;;;;;;;15.06;56.39;100658.28;4985898;28;20031;-93
2022/04/22 08:19:13;;;;;;;18.80;13.88;;;;;;;15.00;56.70;100663.97;4973766;28;20022;-91
2022/04/22 08:21:38;;;;;;;17.05;13.55;;;;;;;14.82;56.87;100649.13;4968282;28;20039;-93
2022/04/22 08:24:03;;;;;;;18.77;14.57;;;;;;;14.74;57.17;100658.47;4967972;28;20138;-94
2022/04/22 08:26:32;;;;;;;21.67;13.95;;;;;;;14.73;57.15;100661.19;4966987;28;20030;-92
2022/04/22 08:28:58;;;;;;;17.70;13.80;;;;;;;14.61;56.61;100652.16;4987112;28;20030;-90
2022/04/22 08:31:23;;;;;;;19.20;13.60;;;;;;;14.68;57.36;100650.81;4984107;28;20039;-92
2022/04/22 08:33:49;;;;;;;19.20;14.43;;;;;;;14.82;57.62;100636.69;4992469;28;20109;-95
2022/04/22 08:36:15;;;;;;;21.02;13.88;;;;;;;15.07;56.24;100633.38;4970782;28;20089;-91
2022/04/22 08:38:42;;;;;;;19.60;14.43;;;;;;;15.21;55.52;100644.03;4991739;28;20031;-92
2022/04/22 08:41:09;;;;;;;17.98;13.82;;;;;;;15.38;55.12;100642.09;4968967;28;20485;-92
2022/04/22 08:43:36;;;;;;;18.92;14.07;;;;;;;15.60;54.43;100639.78;4974221;28;20038;-94
2022/04/22 08:46:02;;;;;;;18.48;14.02;;;;;;;15.63;53.96;100644.06;4970678;28;20076;-91
2022/04/22 08:51:14;;;;;;;40.78;15.45;;;;;;;15.95;54.21;100631.34;4989122;28;20060;-93
2022/04/22 08:53:43;;;;;;;18.88;13.40;;;;;;;16.13;53.09;100640.75;4992136;28;20041;-90
2022/04/22 08:56:10;;;;;;;18.10;13.43;;;;;;;16.54;52.20;100634.47;4974724;28;20053;-92
2022/04/22 08:58:36;;;;;;;18.67;13.88;;;;;;;17.65;49.48;100638.25;5000177;28;20030;-93
2022/04/22 09:01:03;;;;;;;24.88;14.02;;;;;;;18.67;47.80;100638.59;4978425;28;20492;-96
2022/04/22 09:03:29;;;;;;;20.13;12.73;;;;;;;18.93;46.10;100633.94;4972524;28;20080;-93
2022/04/22 09:05:59;;;;;;;18.48;13.13;;;;;;;18.78;46.10;100630.59;4974107;28;20026;-94
2022/04/22 09:08:25;;;;;;;16.13;12.13;;;;;;;18.37;47.03;100625.72;4996778;28;20105;-91
2022/04/22 09:10:55;;;;;;;18.13;13.43;;;;;;;18.20;47.82;100624.34;4982188;28;20034;-94
2022/04/22 09:13:29;;;;;;;17.88;12.43;;;;;;;18.12;48.75;100628.56;4993181;28;20026;-93
2022/04/22 09:15:55;;;;;;;17.20;12.55;;;;;;;17.99;48.04;100621.44;4994588;28;20071;-94
2022/04/22 09:18:26;;;;;;;13.00;10.45;;;;;;;18.41;46.65;100605.78;4977484;28;20034;-90
2022/04/22 09:20:56;;;;;;;15.68;10.38;;;;;;;19.45;44.75;100608.34;4988039;28;20053;-95
2022/04/22 09:23:34;;;;;;;14.43;11.18;;;;;;;18.99;44.63;100590.56;4978711;28;20029;-94
2022/04/22 09:26:04;;;;;;;16.08;11.98;;;;;;;18.36;45.86;100606.13;4978181;28;20116;-94
2022/04/22 09:28:30;;;;;;;15.98;11.70;;;;;;;18.31;46.88;100610.13;4998777;28;20030;-93
2022/04/22 09:30:56;;;;;;;14.60;10.85;;;;;;;18.81;45.50;100603.59;4998005;28;20061;-90
2022/04/22 09:33:22;;;;;;;16.38;11.95;;;;;;;19.12;43.25;100595.81;4981669;28;20045;-92
2022/04/22 09:44:35;;;;;;;14.23;10.85;;;;;;;19.01;45.15;100583.25;4998259;28;20086;-93
2022/04/22 09:47:11;;;;;;;17.90;11.25;;;;;;;19.32;44.56;100587.00;4981152;28;20038;-95
2022/04/22 09:49:38;;;;;;;17.73;11.68;;;;;;;19.36;43.81;100575.06;4981478;28;20026;-92
2022/04/22 09:52:05;;;;;;;13.73;11.20;;;;;;;19.48;43.26;100572.34;4982396;28;20050;-93
2022/04/22 09:54:30;;;;;;;14.73;10.55;;;;;;;19.17;43.57;100563.28;4989951;28;20026;-91
2022/04/22 09:56:57;;;;;;;23.88;11.50;;;;;;;18.86;44.05;100565.72;4990901;28;20037;-95
2022/04/22 09:59:30;;;;;;;15.63;11.35;;;;;;;18.44;44.51;100573.44;4981968;28;20023;-94
2022/04/22 10:02:00;;;;;;;16.00;11.77;;;;;;;18.10;45.14;100568.00;4989243;28;20035;-93
2022/04/22 10:04:27;;;;;;;13.20;11.30;;;;;;;17.74;45.39;100562.75;4988072;28;20037;-95
2022/04/22 10:06:52;;;;;;;15.27;11.23;;;;;;;17.44;46.05;100557.78;4988918;28;20026;-94
2022/04/22 10:09:19;;;;;;;13.38;11.00;;;;;;;17.36;46.77;100565.53;4994046;28;20027;-93
2022/04/22 10:11:52;;;;;;;14.25;12.38;;;;;;;17.21;46.48;100560.34;4996158;28;20038;-94
2022/04/22 10:14:38;;;;;;;14.65;11.40;;;;;;;17.01;47.17;100560.91;4991929;28;20482;-93
2022/04/22 10:17:05;;;;;;;14.63;11.07;;;;;;;16.69;47.81;100558.66;4980413;28;20500;-94
2022/04/22 10:19:32;;;;;;;16.13;11.88;;;;;;;16.57;48.47;100555.03;4981844;28;20038;-92
2022/04/22 10:22:02;;;;;;;15.07;11.60;;;;;;;16.50;49.02;100572.44;4984894;28;20018;-91
2022/04/22 10:24:31;;;;;;;16.05;13.07;;;;;;;16.53;48.79;100563.38;4989384;28;20022;-93
2022/04/22 10:26:58;;;;;;;15.07;12.10;;;;;;;16.68;48.13;100564.97;4979103;28;20042;-94
2022/04/22 10:29:26;;;;;;;16.27;12.50;;;;;;;16.81;47.72;100556.97;4980540;28;20029;-90
2022/04/22 10:31:52;;;;;;;15.95;12.35;;;;;;;17.05;48.17;100557.06;4989108;28;20086;-90
2022/04/22 10:34:19;;;;;;;14.98;12.48;;;;;;;17.14;47.13;100548.38;4986472;28;20034;-94
2022/04/22 10:36:46;;;;;;;42.22;13.35;;;;;;;17.33;46.29;100550.56;4982616;28;20034;-93
2022/04/22 10:39:31;;;;;;;16.50;11.88;;;;;;;17.21;46.96;100551.47;4981087;28;20031;-93
2022/04/22 10:41:56;;;;;;;12.65;10.90;;;;;;;17.06;46.63;100540.91;4964217;28;20414;-90
2022/04/22 10:47:15;;;;;;;16.67;12.85;;;;;;;16.98;46.69;100543.28;4977468;28;20718;-93
2022/04/22 10:49:43;;;;;;;36.55;13.10;;;;;;;16.95;46.71;100539.97;4983073;28;20109;-92
2022/04/22 10:52:13;;;;;;;100.53;16.67;;;;;;;16.93;47.16;100553.47;4983315;28;20069;-91
2022/04/22 10:54:51;;;;;;;16.27;12.95;;;;;;;16.93;46.64;100534.75;4972643;28;20057;-92
2022/04/22 10:57:18;;;;;;;15.32;11.65;;;;;;;16.80;47.11;100525.91;4988382;28;20042;-92
2022/04/22 10:59:44;;;;;;;13.82;10.85;;;;;;;16.87;46.88;100531.66;4974001;28;20516;-93
2022/04/22 11:02:32;;;;;;;14.52;11.63;;;;;;;16.92;47.54;100530.34;4989826;28;20025;-92
2022/04/22 11:05:19;;;;;;;15.25;12.57;;;;;;;16.87;47.13;100542.34;4968483;28;20117;-91
2022/04/22 11:07:50;;;;;;;17.15;11.73;;;;;;;16.90;46.95;100531.44;4989189;28;20516;-93
2022/04/22 11:10:26;;;;;;;15.45;12.00;;;;;;;17.16;46.81;100542.91;4976250;28;20482;-92
2022/04/22 11:12:53;;;;;;;18.17;13.80;;;;;;;17.37;46.35;100537.84;4992391;28;20029;-92
2022/04/22 11:15:46;;;;;;;14.38;12.32;;;;;;;17.55;46.45;100532.00;4967452;28;20088;-94
2022/04/22 11:18:13;;;;;;;15.80;12.70;;;;;;;17.70;46.85;100534.50;4971244;28;20056;-94
2022/04/22 11:20:42;;;;;;;14.45;11.73;;;;;;;17.55;46.58;100518.63;4995646;28;20069;-93
2022/04/22 11:23:12;;;;;;;16.50;14.02;;;;;;;17.20;46.30;100523.88;4969846;28;20080;-93
2022/04/22 11:25:38;;;;;;;17.27;14.30;;;;;;;17.02;46.41;100509.19;4975781;28;20022;-91
2022/04/22 11:28:04;;;;;;;20.05;13.38;;;;;;;16.81;47.23;100512.44;4973924;28;20022;-93
2022/04/22 11:30:32;;;;;;;18.05;13.05;;;;;;;16.71;47.81;100521.19;4973043;28;20029;-94
2022/04/22 11:33:09;;;;;;;16.23;12.45;;;;;;;16.72;47.56;100518.44;4974049;28;20400;-94
2022/04/22 11:35:35;;;;;;;18.88;13.65;;;;;;;16.75;48.02;100520.06;4971225;28;20031;-92
2022/04/22 11:38:07;;;;;;;123.65;18.98;;;;;;;16.72;47.89;100510.44;4976852;28;20037;-92
2022/04/22 11:40:37;;;;;;;18.35;12.85;;;;;;;16.78;48.33;100530.50;4974629;28;20029;-92
2022/04/22 11:43:08;;;;;;;17.77;13.52;;;;;;;16.68;48.17;100513.41;4972298;28;20830;-93
2022/04/22 11:45:42;;;;;;;54.03;14.77;;;;;;;16.59;48.61;100518.41;4972983;28;20094;-92
2022/04/22 11:48:30;;;;;;;15.95;12.32;;;;;;;16.78;47.90;100520.66;4987282;28;20038;-91
2022/04/22 11:50:58;;;;;;;54.30;14.73;;;;;;;17.12;47.62;100518.25;4972808;28;20483;-93
2022/04/22 11:53:32;;;;;;;17.15;12.90;;;;;;;17.36;48.00;100515.63;4967675;28;20124;-92
2022/04/22 11:55:58;;;;;;;20.38;12.95;;;;;;;17.32;46.41;100514.97;4989287;28;20509;-92
2022/04/22 11:58:24;;;;;;;18.02;13.10;;;;;;;17.38;47.29;100505.66;4974165;28;20073;-93
2022/04/22 12:06:21;;;;;;;17.92;12.50;;;;;;;17.20;47.08;100509.66;4989886;28;20165;-93
2022/04/22 12:08:53;;;;;;;18.70;12.32;;;;;;;17.18;46.55;100514.28;4994351;28;20038;-92